sensor_id;sensor_type;location;lat;lon;timestamp;pressure;altitude;pressure_sealevel;temperature;humidity
75157;BME280;63736;50.076;8.198;2023-05-29T00:01:17;99713.34;;;16.41;49.65
75157;BME280;63736;50.076;8.198;2023-05-29T00:03:46;99716.41;;;16.38;49.51
75157;BME280;63736;50.076;8.198;2023-05-29T00:06:12;99714.16;;;16.33;49.77
75157;BME280;63736;50.076;8.198;2023-05-29T00:08:38;99715.66;;;16.27;49.65
75157;BME280;63736;50.076;8.198;2023-05-29T00:11:03;99719.84;;;16.22;50.00
75157;BME280;63736;50.076;8.198;2023-05-29T00:13:29;99701.78;;;16.14;49.91
75157;BME280;63736;50.076;8.198;2023-05-29T00:15:54;99708.50;;;16.10;50.15
75157;BME280;63736;50.076;8.198;2023-05-29T00:18:20;99707.13;;;16.06;49.38
75157;BME280;63736;50.076;8.198;2023-05-29T00:20:45;99708.28;;;16.03;50.14
75157;BME280;63736;50.076;8.198;2023-05-29T00:23:11;99700.34;;;15.93;50.34
75157;BME280;63736;50.076;8.198;2023-05-29T00:25:36;99703.16;;;15.92;50.60
75157;BME280;63736;50.076;8.198;2023-05-29T00:28:02;99708.06;;;15.88;50.30
75157;BME280;63736;50.076;8.198;2023-05-29T00:30:27;99707.84;;;15.81;50.30
75157;BME280;63736;50.076;8.198;2023-05-29T00:32:52;99705.91;;;15.74;50.85
75157;BME280;63736;50.076;8.198;2023-05-29T00:35:19;99709.69;;;15.63;50.96
75157;BME280;63736;50.076;8.198;2023-05-29T00:37:45;99707.28;;;15.51;51.25
75157;BME280;63736;50.076;8.198;2023-05-29T00:40:10;99705.47;;;15.42;51.69
75157;BME280;63736;50.076;8.198;2023-05-29T00:42:36;99702.91;;;15.32;51.73
75157;BME280;63736;50.076;8.198;2023-05-29T00:45:02;99703.84;;;15.23;52.15
75157;BME280;63736;50.076;8.198;2023-05-29T00:47:28;99698.53;;;15.13;52.38
75157;BME280;63736;50.076;8.198;2023-05-29T00:49:53;99693.91;;;15.06;53.33
75157;BME280;63736;50.076;8.198;2023-05-29T00:52:20;99691.22;;;15.06;52.78
75157;BME280;63736;50.076;8.198;2023-05-29T00:54:46;99699.28;;;15.06;53.40
75157;BME280;63736;50.076;8.198;2023-05-29T00:57:13;99695.44;;;15.08;53.57
75157;BME280;63736;50.076;8.198;2023-05-29T00:59:39;99691.06;;;15.07;53.41
75157;BME280;63736;50.076;8.198;2023-05-29T01:02:06;99690.06;;;15.08;53.75
75157;BME280;63736;50.076;8.198;2023-05-29T01:04:32;99694.44;;;15.09;53.78
75157;BME280;63736;50.076;8.198;2023-05-29T01:07:00;99694.13;;;15.12;54.14
75157;BME280;63736;50.076;8.198;2023-05-29T01:09:25;99694.66;;;15.16;54.12
75157;BME280;63736;50.076;8.198;2023-05-29T01:15:02;99691.53;;;15.20;54.03
75157;BME280;63736;50.076;8.198;2023-05-29T01:20:40;99695.00;;;15.13;54.52
75157;BME280;63736;50.076;8.198;2023-05-29T01:28:41;99696.53;;;14.97;54.66
75157;BME280;63736;50.076;8.198;2023-05-29T01:31:08;99705.19;;;14.91;55.22
75157;BME280;63736;50.076;8.198;2023-05-29T01:33:38;99691.53;;;14.84;55.53
75157;BME280;63736;50.076;8.198;2023-05-29T01:36:05;99692.28;;;14.77;55.75
75157;BME280;63736;50.076;8.198;2023-05-29T01:38:31;99697.59;;;14.68;56.45
75157;BME280;63736;50.076;8.198;2023-05-29T01:40:57;99691.50;;;14.66;56.72
75157;BME280;63736;50.076;8.198;2023-05-29T01:43:23;99698.56;;;14.67;57.02
75157;BME280;63736;50.076;8.198;2023-05-29T01:45:48;99700.28;;;14.68;56.73
75157;BME280;63736;50.076;8.198;2023-05-29T01:48:14;99700.28;;;14.68;57.01
75157;BME280;63736;50.076;8.198;2023-05-29T01:50:40;99704.09;;;14.66;57.23
75157;BME280;63736;50.076;8.198;2023-05-29T01:53:09;99702.41;;;14.65;57.94
75157;BME280;63736;50.076;8.198;2023-05-29T01:55:34;99689.97;;;14.64;59.29
75157;BME280;63736;50.076;8.198;2023-05-29T01:58:00;99690.81;;;14.64;59.01
75157;BME280;63736;50.076;8.198;2023-05-29T02:00:26;99683.44;;;14.66;59.04
75157;BME280;63736;50.076;8.198;2023-05-29T02:02:51;99689.34;;;14.70;59.69
75157;BME280;63736;50.076;8.198;2023-05-29T02:05:17;99682.69;;;14.74;59.72
75157;BME280;63736;50.076;8.198;2023-05-29T02:07:42;99671.59;;;14.77;59.60
75157;BME280;63736;50.076;8.198;2023-05-29T02:10:08;99687.13;;;14.83;59.66
75157;BME280;63736;50.076;8.198;2023-05-29T02:12:33;99668.31;;;14.83;59.75
75157;BME280;63736;50.076;8.198;2023-05-29T02:14:59;99670.00;;;14.84;59.64
75157;BME280;63736;50.076;8.198;2023-05-29T02:17:24;99669.84;;;14.86;59.62
75157;BME280;63736;50.076;8.198;2023-05-29T02:19:50;99661.78;;;14.86;59.61
75157;BME280;63736;50.076;8.198;2023-05-29T02:22:17;99675.06;;;14.87;59.46
75157;BME280;63736;50.076;8.198;2023-05-29T02:24:42;99676.53;;;14.82;59.76
75157;BME280;63736;50.076;8.198;2023-05-29T02:27:08;99679.53;;;14.79;59.51
75157;BME280;63736;50.076;8.198;2023-05-29T02:29:33;99671.22;;;14.72;59.57
75157;BME280;63736;50.076;8.198;2023-05-29T02:31:58;99679.44;;;14.70;60.04
75157;BME280;63736;50.076;8.198;2023-05-29T02:34:24;99674.22;;;14.69;60.01
75157;BME280;63736;50.076;8.198;2023-05-29T02:36:50;99670.97;;;14.65;59.78
75157;BME280;63736;50.076;8.198;2023-05-29T02:39:17;99671.69;;;14.67;59.89
75157;BME280;63736;50.076;8.198;2023-05-29T02:41:42;99669.66;;;14.69;60.25
75157;BME280;63736;50.076;8.198;2023-05-29T02:44:07;99659.63;;;14.72;60.11
75157;BME280;63736;50.076;8.198;2023-05-29T02:46:33;99659.31;;;14.75;60.36
75157;BME280;63736;50.076;8.198;2023-05-29T02:48:58;99661.72;;;14.78;60.86
75157;BME280;63736;50.076;8.198;2023-05-29T02:51:23;99661.72;;;14.78;60.64
75157;BME280;63736;50.076;8.198;2023-05-29T02:53:48;99664.25;;;14.79;60.93
75157;BME280;63736;50.076;8.198;2023-05-29T02:56:14;99660.56;;;14.80;61.20
75157;BME280;63736;50.076;8.198;2023-05-29T02:58:41;99656.03;;;14.81;61.22
75157;BME280;63736;50.076;8.198;2023-05-29T03:01:06;99652.66;;;14.79;60.77
75157;BME280;63736;50.076;8.198;2023-05-29T03:03:31;99660.19;;;14.75;60.87
75157;BME280;63736;50.076;8.198;2023-05-29T03:05:57;99663.03;;;14.74;61.09
75157;BME280;63736;50.076;8.198;2023-05-29T03:08:22;99663.03;;;14.74;61.11
75157;BME280;63736;50.076;8.198;2023-05-29T03:10:49;99660.34;;;14.74;60.99
75157;BME280;63736;50.076;8.198;2023-05-29T03:13:14;99663.03;;;14.74;61.65
75157;BME280;63736;50.076;8.198;2023-05-29T03:15:39;99663.03;;;14.74;61.53
75157;BME280;63736;50.076;8.198;2023-05-29T03:18:05;99672.09;;;14.73;62.37
75157;BME280;63736;50.076;8.198;2023-05-29T03:20:30;99670.94;;;14.75;62.77
75157;BME280;63736;50.076;8.198;2023-05-29T03:22:56;99676.31;;;14.75;62.64
75157;BME280;63736;50.076;8.198;2023-05-29T03:25:22;99664.69;;;14.75;63.53
75157;BME280;63736;50.076;8.198;2023-05-29T03:27:47;99672.63;;;14.76;63.59
75157;BME280;63736;50.076;8.198;2023-05-29T03:30:13;99676.16;;;14.77;64.78
75157;BME280;63736;50.076;8.198;2023-05-29T03:32:38;99679.16;;;14.74;65.18
75157;BME280;63736;50.076;8.198;2023-05-29T03:35:04;99671.38;;;14.70;66.48
75157;BME280;63736;50.076;8.198;2023-05-29T03:37:30;99670.69;;;14.68;67.08
75157;BME280;63736;50.076;8.198;2023-05-29T03:39:55;99679.75;;;14.67;66.80
75157;BME280;63736;50.076;8.198;2023-05-29T03:42:20;99685.13;;;14.67;67.59
75157;BME280;63736;50.076;8.198;2023-05-29T03:44:46;99683.72;;;14.63;68.12
75157;BME280;63736;50.076;8.198;2023-05-29T03:47:12;99686.41;;;14.63;67.96
75157;BME280;63736;50.076;8.198;2023-05-29T03:49:37;99690.91;;;14.63;69.00
75157;BME280;63736;50.076;8.198;2023-05-29T03:52:03;99689.25;;;14.62;69.61
75157;BME280;63736;50.076;8.198;2023-05-29T03:54:28;99680.78;;;14.57;70.00
75157;BME280;63736;50.076;8.198;2023-05-29T03:56:53;99687.31;;;14.54;70.20
75157;BME280;63736;50.076;8.198;2023-05-29T03:59:18;99693.69;;;14.53;70.37
75157;BME280;63736;50.076;8.198;2023-05-29T04:01:44;99703.03;;;14.49;71.53
75157;BME280;63736;50.076;8.198;2023-05-29T04:04:09;99705.03;;;14.47;71.77
75157;BME280;63736;50.076;8.198;2023-05-29T04:06:35;99713.09;;;14.47;72.09
75157;BME280;63736;50.076;8.198;2023-05-29T04:09:04;99704.19;;;14.46;72.32
75157;BME280;63736;50.076;8.198;2023-05-29T04:11:29;99705.56;;;14.50;72.99
75157;BME280;63736;50.076;8.198;2023-05-29T04:13:55;99708.81;;;14.54;72.28
75157;BME280;63736;50.076;8.198;2023-05-29T04:16:20;99714.38;;;14.70;72.10
75157;BME280;63736;50.076;8.198;2023-05-29T04:18:45;99709.50;;;15.02;70.46
75157;BME280;63736;50.076;8.198;2023-05-29T04:21:11;99719.22;;;15.31;68.85
75157;BME280;63736;50.076;8.198;2023-05-29T04:23:37;99729.44;;;15.72;67.07
75157;BME280;63736;50.076;8.198;2023-05-29T04:26:02;99720.00;;;16.20;64.65
75157;BME280;63736;50.076;8.198;2023-05-29T04:28:27;99724.28;;;16.82;62.05
75157;BME280;63736;50.076;8.198;2023-05-29T04:30:53;99719.66;;;17.33;58.36
75157;BME280;63736;50.076;8.198;2023-05-29T04:33:20;99732.16;;;17.76;56.64
75157;BME280;63736;50.076;8.198;2023-05-29T04:35:46;99731.63;;;18.13;54.42
75157;BME280;63736;50.076;8.198;2023-05-29T04:38:13;99733.50;;;18.53;53.05
75157;BME280;63736;50.076;8.198;2023-05-29T04:40:39;99736.59;;;18.81;51.67
75157;BME280;63736;50.076;8.198;2023-05-29T04:43:05;99741.19;;;19.12;50.93
75157;BME280;63736;50.076;8.198;2023-05-29T04:45:31;99742.81;;;19.44;50.05
75157;BME280;63736;50.076;8.198;2023-05-29T04:47:56;99738.72;;;19.87;48.57
75157;BME280;63736;50.076;8.198;2023-05-29T04:50:22;99760.94;;;20.20;47.30
75157;BME280;63736;50.076;8.198;2023-05-29T04:52:51;99764.22;;;20.30;46.46
75157;BME280;63736;50.076;8.198;2023-05-29T04:55:16;99768.06;;;20.51;46.30
75157;BME280;63736;50.076;8.198;2023-05-29T04:57:42;99770.69;;;20.74;45.69
75157;BME280;63736;50.076;8.198;2023-05-29T05:00:08;99769.47;;;20.77;45.19
75157;BME280;63736;50.076;8.198;2023-05-29T05:02:40;99776.47;;;20.86;45.11
75157;BME280;63736;50.076;8.198;2023-05-29T05:05:06;99777.03;;;20.96;44.64
75157;BME280;63736;50.076;8.198;2023-05-29T05:07:31;99780.22;;;21.22;44.33
75157;BME280;63736;50.076;8.198;2023-05-29T05:09:56;99775.44;;;21.45;43.34
75157;BME280;63736;50.076;8.198;2023-05-29T05:12:22;99788.81;;;21.47;43.49
75157;BME280;63736;50.076;8.198;2023-05-29T05:14:47;99784.00;;;21.42;43.31
75157;BME280;63736;50.076;8.198;2023-05-29T05:17:12;99778.97;;;21.61;43.17
75157;BME280;63736;50.076;8.198;2023-05-29T05:19:37;99789.00;;;21.60;43.16
75157;BME280;63736;50.076;8.198;2023-05-29T05:22:03;99783.78;;;21.87;42.85
75157;BME280;63736;50.076;8.198;2023-05-29T05:24:28;99793.41;;;22.40;41.48
75157;BME280;63736;50.076;8.198;2023-05-29T05:26:53;99785.16;;;22.61;41.06
75157;BME280;63736;50.076;8.198;2023-05-29T05:29:19;99796.38;;;22.45;41.22
75157;BME280;63736;50.076;8.198;2023-05-29T05:31:45;99793.00;;;22.85;40.92
75157;BME280;63736;50.076;8.198;2023-05-29T05:34:10;99796.31;;;23.15;40.08
75157;BME280;63736;50.076;8.198;2023-05-29T05:36:35;99796.13;;;23.30;39.51
75157;BME280;63736;50.076;8.198;2023-05-29T05:39:02;99802.03;;;23.40;39.32
75157;BME280;63736;50.076;8.198;2023-05-29T05:41:27;99796.84;;;23.79;38.84
75157;BME280;63736;50.076;8.198;2023-05-29T05:43:52;99800.03;;;24.09;38.18
75157;BME280;63736;50.076;8.198;2023-05-29T05:46:17;99788.66;;;24.26;37.47
75157;BME280;63736;50.076;8.198;2023-05-29T05:48:43;99802.75;;;24.16;38.08
75157;BME280;63736;50.076;8.198;2023-05-29T05:51:08;99793.50;;;24.37;37.26
75157;BME280;63736;50.076;8.198;2023-05-29T05:53:33;99797.00;;;24.71;37.52
75157;BME280;63736;50.076;8.198;2023-05-29T05:55:59;99789.13;;;25.40;35.94
75157;BME280;63736;50.076;8.198;2023-05-29T05:58:24;99802.47;;;26.13;34.98
75157;BME280;63736;50.076;8.198;2023-05-29T06:00:50;99798.84;;;26.44;34.13
75157;BME280;63736;50.076;8.198;2023-05-29T06:03:17;99808.38;;;26.97;33.41
75157;BME280;63736;50.076;8.198;2023-05-29T06:05:43;99808.06;;;27.06;33.10
75157;BME280;63736;50.076;8.198;2023-05-29T06:08:08;99811.09;;;27.46;32.49
75157;BME280;63736;50.076;8.198;2023-05-29T06:10:34;99805.72;;;27.82;31.83
75157;BME280;63736;50.076;8.198;2023-05-29T06:13:00;99808.78;;;28.16;31.40
75157;BME280;63736;50.076;8.198;2023-05-29T06:15:26;99817.50;;;28.48;30.97
75157;BME280;63736;50.076;8.198;2023-05-29T06:17:51;99816.41;;;28.61;31.06
75157;BME280;63736;50.076;8.198;2023-05-29T06:20:17;99811.94;;;29.25;30.27
75157;BME280;63736;50.076;8.198;2023-05-29T06:22:42;99820.31;;;29.88;29.22
75157;BME280;63736;50.076;8.198;2023-05-29T06:25:08;99832.31;;;30.15;28.38
75157;BME280;63736;50.076;8.198;2023-05-29T06:27:34;99838.72;;;29.87;27.87
75157;BME280;63736;50.076;8.198;2023-05-29T06:30:03;99837.66;;;30.05;28.37
75157;BME280;63736;50.076;8.198;2023-05-29T06:32:28;99826.97;;;30.26;28.24
75157;BME280;63736;50.076;8.198;2023-05-29T06:34:54;99829.13;;;30.24;28.04
75157;BME280;63736;50.076;8.198;2023-05-29T06:37:19;99826.28;;;30.53;27.17
75157;BME280;63736;50.076;8.198;2023-05-29T06:39:45;99828.59;;;30.61;27.52
75157;BME280;63736;50.076;8.198;2023-05-29T06:42:11;99828.00;;;31.20;26.78
75157;BME280;63736;50.076;8.198;2023-05-29T06:44:36;99822.84;;;31.56;26.18
75157;BME280;63736;50.076;8.198;2023-05-29T06:47:01;99826.41;;;32.11;25.83
75157;BME280;63736;50.076;8.198;2023-05-29T06:49:26;99829.09;;;32.76;24.58
75157;BME280;63736;50.076;8.198;2023-05-29T06:51:52;99824.50;;;33.08;24.98
75157;BME280;63736;50.076;8.198;2023-05-29T06:54:17;99822.69;;;33.50;24.30
75157;BME280;63736;50.076;8.198;2023-05-29T06:56:42;99825.75;;;33.43;23.97
75157;BME280;63736;50.076;8.198;2023-05-29T06:59:08;99822.97;;;32.74;24.06
75157;BME280;63736;50.076;8.198;2023-05-29T07:01:33;99826.00;;;32.30;24.78
75157;BME280;63736;50.076;8.198;2023-05-29T07:03:58;99819.94;;;32.33;24.65
75157;BME280;63736;50.076;8.198;2023-05-29T07:06:24;99830.09;;;32.65;24.78
75157;BME280;63736;50.076;8.198;2023-05-29T07:08:49;99834.19;;;33.05;24.32
75157;BME280;63736;50.076;8.198;2023-05-29T07:11:14;99837.38;;;33.40;24.19
75157;BME280;63736;50.076;8.198;2023-05-29T07:13:40;99838.28;;;33.82;23.39
75157;BME280;63736;50.076;8.198;2023-05-29T07:16:05;99839.13;;;34.39;23.08
75157;BME280;63736;50.076;8.198;2023-05-29T07:18:31;99845.16;;;33.69;23.78
75157;BME280;63736;50.076;8.198;2023-05-29T07:20:56;99840.97;;;33.46;23.63
75157;BME280;63736;50.076;8.198;2023-05-29T07:23:21;99846.84;;;33.70;23.87
75157;BME280;63736;50.076;8.198;2023-05-29T07:25:47;99843.28;;;33.90;23.75
75157;BME280;63736;50.076;8.198;2023-05-29T07:28:12;99849.09;;;33.83;23.62
75157;BME280;63736;50.076;8.198;2023-05-29T07:30:37;99851.56;;;33.80;23.81
75157;BME280;63736;50.076;8.198;2023-05-29T07:33:02;99843.81;;;34.23;23.36
75157;BME280;63736;50.076;8.198;2023-05-29T07:35:28;99844.97;;;34.32;22.83
75157;BME280;63736;50.076;8.198;2023-05-29T07:37:53;99845.91;;;34.93;22.69
75157;BME280;63736;50.076;8.198;2023-05-29T07:40:19;99848.19;;;35.46;21.87
75157;BME280;63736;50.076;8.198;2023-05-29T07:42:44;99849.47;;;36.04;21.69
75157;BME280;63736;50.076;8.198;2023-05-29T07:45:09;99853.75;;;35.41;21.99
75157;BME280;63736;50.076;8.198;2023-05-29T07:47:36;99851.25;;;35.45;21.75
75157;BME280;63736;50.076;8.198;2023-05-29T07:50:01;99856.06;;;35.23;21.81
75157;BME280;63736;50.076;8.198;2023-05-29T07:52:26;99860.56;;;35.09;22.02
75157;BME280;63736;50.076;8.198;2023-05-29T07:54:52;99856.50;;;35.46;21.97
75157;BME280;63736;50.076;8.198;2023-05-29T07:57:18;99855.97;;;35.84;21.24
75157;BME280;63736;50.076;8.198;2023-05-29T07:59:43;99868.41;;;36.31;20.84
75157;BME280;63736;50.076;8.198;2023-05-29T08:02:09;99855.78;;;36.68;20.31
75157;BME280;63736;50.076;8.198;2023-05-29T08:04:35;99857.66;;;35.85;20.73
75157;BME280;63736;50.076;8.198;2023-05-29T08:07:02;99853.34;;;35.63;20.54
75157;BME280;63736;50.076;8.198;2023-05-29T08:09:31;99867.13;;;35.79;21.12
75157;BME280;63736;50.076;8.198;2023-05-29T08:11:56;99855.38;;;35.92;21.08
75157;BME280;63736;50.076;8.198;2023-05-29T08:14:21;99867.69;;;36.50;20.07
75157;BME280;63736;50.076;8.198;2023-05-29T08:16:47;99855.59;;;36.01;19.07
75157;BME280;63736;50.076;8.198;2023-05-29T08:19:12;99862.50;;;35.69;19.96
75157;BME280;63736;50.076;8.198;2023-05-29T08:21:37;99847.59;;;34.89;19.97
75157;BME280;63736;50.076;8.198;2023-05-29T08:24:03;99851.97;;;35.11;20.09
75157;BME280;63736;50.076;8.198;2023-05-29T08:26:31;99847.22;;;35.66;19.51
75157;BME280;63736;50.076;8.198;2023-05-29T08:28:57;99848.25;;;35.76;18.67
75157;BME280;63736;50.076;8.198;2023-05-29T08:31:22;99852.06;;;36.19;18.60
75157;BME280;63736;50.076;8.198;2023-05-29T08:33:51;99849.91;;;36.16;17.93
75157;BME280;63736;50.076;8.198;2023-05-29T08:36:16;99857.00;;;35.98;17.96
75157;BME280;63736;50.076;8.198;2023-05-29T08:38:42;99855.47;;;35.27;17.98
75157;BME280;63736;50.076;8.198;2023-05-29T08:41:07;99856.94;;;35.69;17.79
75157;BME280;63736;50.076;8.198;2023-05-29T08:43:34;99861.41;;;36.04;17.75
75157;BME280;63736;50.076;8.198;2023-05-29T08:46:01;99853.78;;;35.81;17.64
75157;BME280;63736;50.076;8.198;2023-05-29T08:48:28;99867.66;;;36.20;17.36
75157;BME280;63736;50.076;8.198;2023-05-29T08:50:56;99858.81;;;35.73;17.11
75157;BME280;63736;50.076;8.198;2023-05-29T08:53:22;99846.00;;;35.78;17.49
75157;BME280;63736;50.076;8.198;2023-05-29T08:55:49;99855.50;;;36.11;17.40
75157;BME280;63736;50.076;8.198;2023-05-29T08:58:21;99856.13;;;36.03;17.11
75157;BME280;63736;50.076;8.198;2023-05-29T09:00:48;99846.91;;;36.42;16.45
75157;BME280;63736;50.076;8.198;2023-05-29T09:03:14;99850.56;;;36.37;16.96
75157;BME280;63736;50.076;8.198;2023-05-29T09:05:40;99853.69;;;35.96;16.74
75157;BME280;63736;50.076;8.198;2023-05-29T09:08:09;99847.53;;;35.99;17.07
75157;BME280;63736;50.076;8.198;2023-05-29T09:10:38;99848.88;;;36.07;17.18
75157;BME280;63736;50.076;8.198;2023-05-29T09:13:04;99854.34;;;36.47;16.76
75157;BME280;63736;50.076;8.198;2023-05-29T09:15:33;99859.38;;;35.76;16.75
75157;BME280;63736;50.076;8.198;2023-05-29T09:17:59;99856.84;;;35.34;17.17
75157;BME280;63736;50.076;8.198;2023-05-29T09:20:25;99848.81;;;35.28;17.41
75157;BME280;63736;50.076;8.198;2023-05-29T09:22:57;99852.72;;;36.11;17.11
75157;BME280;63736;50.076;8.198;2023-05-29T09:25:24;99854.84;;;36.83;17.20
75157;BME280;63736;50.076;8.198;2023-05-29T09:27:57;99866.19;;;36.87;16.64
75157;BME280;63736;50.076;8.198;2023-05-29T09:30:33;99861.75;;;35.98;16.79
75157;BME280;63736;50.076;8.198;2023-05-29T09:33:00;99861.28;;;35.40;17.29
75157;BME280;63736;50.076;8.198;2023-05-29T09:35:35;99854.41;;;35.67;17.05
75157;BME280;63736;50.076;8.198;2023-05-29T09:41:07;99856.16;;;35.58;17.36
75157;BME280;63736;50.076;8.198;2023-05-29T09:43:33;99859.34;;;35.36;17.16
75157;BME280;63736;50.076;8.198;2023-05-29T09:46:00;99863.44;;;34.73;17.56
75157;BME280;63736;50.076;8.198;2023-05-29T09:48:26;99845.41;;;34.70;17.69
75157;BME280;63736;50.076;8.198;2023-05-29T09:50:51;99845.28;;;35.17;17.28
75157;BME280;63736;50.076;8.198;2023-05-29T09:53:20;99846.19;;;35.52;17.21
75157;BME280;63736;50.076;8.198;2023-05-29T09:55:47;99848.25;;;35.26;17.14
75157;BME280;63736;50.076;8.198;2023-05-29T09:58:13;99854.00;;;35.50;16.47
75157;BME280;63736;50.076;8.198;2023-05-29T10:00:43;99844.56;;;35.91;16.57
75157;BME280;63736;50.076;8.198;2023-05-29T10:03:09;99843.25;;;36.12;16.69
75157;BME280;63736;50.076;8.198;2023-05-29T10:05:37;99844.66;;;35.70;16.85
75157;BME280;63736;50.076;8.198;2023-05-29T10:08:04;99838.09;;;35.05;16.87
75157;BME280;63736;50.076;8.198;2023-05-29T10:10:30;99853.50;;;34.41;17.64
75157;BME280;63736;50.076;8.198;2023-05-29T10:12:56;99842.16;;;33.96;17.98
75157;BME280;63736;50.076;8.198;2023-05-29T10:15:23;99859.22;;;33.36;18.43
75157;BME280;63736;50.076;8.198;2023-05-29T10:18:07;99843.03;;;32.54;19.18
75157;BME280;63736;50.076;8.198;2023-05-29T10:20:38;99840.50;;;32.48;19.82
75157;BME280;63736;50.076;8.198;2023-05-29T10:23:09;99844.56;;;32.35;19.90
75157;BME280;63736;50.076;8.198;2023-05-29T10:25:35;99842.84;;;31.63;20.93
75157;BME280;63736;50.076;8.198;2023-05-29T10:28:01;99843.75;;;30.80;22.91
75157;BME280;63736;50.076;8.198;2023-05-29T10:33:13;99851.84;;;29.51;25.27
75157;BME280;63736;50.076;8.198;2023-05-29T10:35:47;99856.34;;;29.16;25.99
75157;BME280;63736;50.076;8.198;2023-05-29T10:38:14;99855.94;;;28.84;26.10
75157;BME280;63736;50.076;8.198;2023-05-29T10:40:42;99846.28;;;28.58;26.20
75157;BME280;63736;50.076;8.198;2023-05-29T10:43:08;99843.66;;;28.51;26.35
75157;BME280;63736;50.076;8.198;2023-05-29T10:50:43;99837.50;;;27.59;25.41
75157;BME280;63736;50.076;8.198;2023-05-29T10:53:09;99835.41;;;27.43;25.90
75157;BME280;63736;50.076;8.198;2023-05-29T10:55:39;99830.06;;;26.99;26.24
75157;BME280;63736;50.076;8.198;2023-05-29T10:58:10;99837.63;;;26.85;26.42
75157;BME280;63736;50.076;8.198;2023-05-29T11:00:41;99838.44;;;26.85;26.81
75157;BME280;63736;50.076;8.198;2023-05-29T11:03:12;99837.22;;;26.81;26.44
75157;BME280;63736;50.076;8.198;2023-05-29T11:06:02;99836.53;;;26.67;26.65
75157;BME280;63736;50.076;8.198;2023-05-29T11:08:42;99848.53;;;26.66;26.76
75157;BME280;63736;50.076;8.198;2023-05-29T11:11:15;99835.59;;;26.55;26.76
75157;BME280;63736;50.076;8.198;2023-05-29T11:13:40;99824.16;;;26.58;26.63
75157;BME280;63736;50.076;8.198;2023-05-29T11:16:19;99834.59;;;26.68;26.63
75157;BME280;63736;50.076;8.198;2023-05-29T11:18:46;99837.59;;;26.66;26.79
75157;BME280;63736;50.076;8.198;2023-05-29T11:23:58;99822.34;;;26.52;26.53
75157;BME280;63736;50.076;8.198;2023-05-29T11:26:26;99813.34;;;26.45;26.79
75157;BME280;63736;50.076;8.198;2023-05-29T11:28:52;99825.13;;;26.45;26.72
75157;BME280;63736;50.076;8.198;2023-05-29T11:31:18;99835.66;;;26.23;26.62
75157;BME280;63736;50.076;8.198;2023-05-29T11:33:50;99822.97;;;26.03;26.73
75157;BME280;63736;50.076;8.198;2023-05-29T11:36:17;99820.66;;;26.07;26.98
75157;BME280;63736;50.076;8.198;2023-05-29T11:38:43;99822.38;;;26.01;27.45
75157;BME280;63736;50.076;8.198;2023-05-29T11:41:09;99824.38;;;25.87;27.11
75157;BME280;63736;50.076;8.198;2023-05-29T11:43:34;99824.41;;;25.81;27.67
75157;BME280;63736;50.076;8.198;2023-05-29T11:46:00;99814.59;;;25.98;27.49
75157;BME280;63736;50.076;8.198;2023-05-29T11:48:25;99823.25;;;26.20;27.24
75157;BME280;63736;50.076;8.198;2023-05-29T11:50:51;99822.69;;;26.37;27.38
75157;BME280;63736;50.076;8.198;2023-05-29T11:53:16;99815.88;;;26.46;27.01
75157;BME280;63736;50.076;8.198;2023-05-29T11:55:41;99817.31;;;26.49;26.61
75157;BME280;63736;50.076;8.198;2023-05-29T11:58:07;99827.69;;;26.47;26.81
75157;BME280;63736;50.076;8.198;2023-05-29T12:00:34;99823.56;;;26.37;26.54
75157;BME280;63736;50.076;8.198;2023-05-29T12:03:01;99822.84;;;26.24;26.77
75157;BME280;63736;50.076;8.198;2023-05-29T12:05:30;99823.19;;;26.02;26.80
75157;BME280;63736;50.076;8.198;2023-05-29T12:07:56;99822.78;;;25.98;27.10
75157;BME280;63736;50.076;8.198;2023-05-29T12:10:24;99818.53;;;26.09;26.94
75157;BME280;63736;50.076;8.198;2023-05-29T12:12:59;99818.78;;;26.08;26.69
75157;BME280;63736;50.076;8.198;2023-05-29T12:15:26;99826.00;;;25.95;26.47
75157;BME280;63736;50.076;8.198;2023-05-29T12:17:53;99812.31;;;25.95;26.37
75157;BME280;63736;50.076;8.198;2023-05-29T12:20:19;99824.03;;;26.09;26.94
75157;BME280;63736;50.076;8.198;2023-05-29T12:22:45;99814.84;;;26.22;26.75
75157;BME280;63736;50.076;8.198;2023-05-29T12:25:21;99806.44;;;26.42;26.62
75157;BME280;63736;50.076;8.198;2023-05-29T12:27:48;99810.09;;;26.54;26.45
75157;BME280;63736;50.076;8.198;2023-05-29T12:30:19;99818.31;;;26.54;26.61
75157;BME280;63736;50.076;8.198;2023-05-29T12:32:47;99813.13;;;26.46;26.71
75157;BME280;63736;50.076;8.198;2023-05-29T12:35:14;99807.63;;;26.46;27.03
75157;BME280;63736;50.076;8.198;2023-05-29T12:37:44;99813.13;;;26.46;27.09
75157;BME280;63736;50.076;8.198;2023-05-29T12:40:33;99808.09;;;26.43;27.35
75157;BME280;63736;50.076;8.198;2023-05-29T12:43:04;99822.78;;;26.30;27.59
75157;BME280;63736;50.076;8.198;2023-05-29T12:45:34;99817.06;;;26.32;27.60
75157;BME280;63736;50.076;8.198;2023-05-29T12:48:01;99811.75;;;26.37;27.72
75157;BME280;63736;50.076;8.198;2023-05-29T12:50:31;99808.69;;;26.45;27.38
75157;BME280;63736;50.076;8.198;2023-05-29T12:53:01;99795.88;;;26.46;27.74
75157;BME280;63736;50.076;8.198;2023-05-29T12:55:29;99802.78;;;26.67;27.61
75157;BME280;63736;50.076;8.198;2023-05-29T12:57:55;99800.16;;;26.79;27.70
75157;BME280;63736;50.076;8.198;2023-05-29T13:00:21;99811.19;;;26.91;26.93
75157;BME280;63736;50.076;8.198;2023-05-29T13:02:47;99796.97;;;26.82;26.67
75157;BME280;63736;50.076;8.198;2023-05-29T13:05:14;99808.22;;;26.74;26.94
75157;BME280;63736;50.076;8.198;2023-05-29T13:07:41;99810.47;;;26.58;26.58
75157;BME280;63736;50.076;8.198;2023-05-29T13:10:07;99811.31;;;26.59;26.69
75157;BME280;63736;50.076;8.198;2023-05-29T13:12:32;99816.03;;;26.51;27.01
75157;BME280;63736;50.076;8.198;2023-05-29T13:14:58;99806.19;;;26.44;27.20
75157;BME280;63736;50.076;8.198;2023-05-29T13:17:23;99807.94;;;26.38;27.49
75157;BME280;63736;50.076;8.198;2023-05-29T13:19:48;99788.31;;;26.41;27.25
75157;BME280;63736;50.076;8.198;2023-05-29T13:22:14;99800.13;;;26.60;27.27